createdAt,value
2023-06-30T00:04:33.548Z,16.58
2023-06-30T00:09:34.966Z,16.54
2023-06-30T00:14:36.351Z,16.61
2023-06-30T00:19:37.763Z,16.59
2023-06-30T00:24:39.138Z,16.52
2023-06-30T00:29:40.552Z,16.56
2023-06-30T00:34:42.225Z,16.49
2023-06-30T00:39:43.591Z,16.44
2023-06-30T00:44:45.095Z,16.39
2023-06-30T00:49:46.757Z,16.37
2023-06-30T00:54:48.162Z,16.36
2023-06-30T00:59:50.394Z,16.36
2023-06-30T01:05:09.450Z,16.32
2023-06-30T01:10:15.769Z,16.29
2023-06-30T01:15:17.649Z,16.21
2023-06-30T01:20:19.815Z,16.25
2023-06-30T01:25:23.520Z,16.21
2023-06-30T01:30:25.208Z,16.14
2023-06-30T01:35:27.472Z,16.12
2023-06-30T01:40:29.351Z,16.17
2023-06-30T01:45:31.375Z,16.21
2023-06-30T01:50:33.347Z,16.16
2023-06-30T01:55:34.718Z,16.16
2023-06-30T02:00:36.103Z,16.12
2023-06-30T02:05:37.466Z,16.05
2023-06-30T02:10:38.935Z,16.04
2023-06-30T02:15:40.590Z,15.97
2023-06-30T02:20:41.976Z,16.03
2023-06-30T02:25:43.594Z,15.95
2023-06-30T02:30:45.343Z,15.89
2023-06-30T02:35:47.088Z,15.90
2023-06-30T02:40:49.126Z,15.89
2023-06-30T02:45:50.534Z,15.90
2023-06-30T02:50:51.966Z,15.88
2023-06-30T02:55:53.458Z,15.96
2023-06-30T03:00:55.646Z,15.89
2023-06-30T03:05:57.408Z,15.83
2023-06-30T03:10:58.907Z,15.90
2023-06-30T03:16:00.369Z,15.93
2023-06-30T03:21:02.832Z,15.92
2023-06-30T03:26:04.326Z,15.91
2023-06-30T03:31:05.788Z,15.92
2023-06-30T03:36:07.670Z,15.94
2023-06-30T03:41:09.102Z,15.91
2023-06-30T03:46:10.548Z,15.89
2023-06-30T03:51:11.940Z,16.03
2023-06-30T03:56:13.321Z,16.07
2023-06-30T04:01:14.696Z,16.07
2023-06-30T04:06:16.071Z,16.15
2023-06-30T04:11:17.659Z,16.16
2023-06-30T04:16:19.084Z,16.26
2023-06-30T04:21:20.469Z,16.30
2023-06-30T04:26:21.859Z,16.28
2023-06-30T04:31:23.318Z,16.33
2023-06-30T04:36:24.693Z,16.44
2023-06-30T04:41:26.256Z,16.40
2023-06-30T04:46:28.479Z,16.20
2023-06-30T04:51:29.894Z,16.12
2023-06-30T04:56:31.284Z,16.06
2023-06-30T05:01:32.744Z,16.21
2023-06-30T05:06:34.148Z,16.21
2023-06-30T05:11:35.528Z,16.03
2023-06-30T05:16:37.006Z,15.82
2023-06-30T05:21:38.457Z,15.74
2023-06-30T05:26:39.816Z,15.60
2023-06-30T05:31:41.264Z,15.54
2023-06-30T05:36:45.689Z,15.49
2023-06-30T05:41:47.076Z,15.68
2023-06-30T05:46:48.520Z,15.97
2023-06-30T05:51:49.941Z,16.00
2023-06-30T05:56:51.336Z,15.85
2023-06-30T06:01:54.000Z,16.06
2023-06-30T06:06:55.424Z,16.00
2023-06-30T06:11:56.860Z,16.21
2023-06-30T06:16:58.380Z,16.32
2023-06-30T06:21:59.786Z,16.60
2023-06-30T06:27:01.157Z,17.33
2023-06-30T06:32:02.553Z,17.76
2023-06-30T06:37:03.999Z,17.72
2023-06-30T06:42:05.586Z,19.22
2023-06-30T06:47:25.943Z,20.80
2023-06-30T06:52:27.323Z,19.87
2023-06-30T06:57:28.769Z,19.46
2023-06-30T07:02:30.194Z,20.58
2023-06-30T07:07:33.504Z,19.63
2023-06-30T07:12:35.073Z,18.77
2023-06-30T07:17:36.741Z,18.30
2023-06-30T07:22:38.257Z,18.23
2023-06-30T07:27:39.668Z,17.96
2023-06-30T07:32:42.493Z,18.30
2023-06-30T07:37:44.448Z,18.28
2023-06-30T07:42:46.012Z,17.68
2023-06-30T07:47:47.559Z,20.63
2023-06-30T07:52:50.169Z,21.29
2023-06-30T07:57:51.525Z,22.01
2023-06-30T08:02:53.517Z,21.96
2023-06-30T08:07:55.070Z,23.01
2023-06-30T08:12:56.447Z,23.41
2023-06-30T08:17:58.542Z,23.51
2023-06-30T08:23:00.211Z,23.96
2023-06-30T08:28:01.597Z,23.92
2023-06-30T08:33:03.038Z,22.78
2023-06-30T08:38:05.253Z,22.45
2023-06-30T08:43:10.521Z,22.15
2023-06-30T08:48:13.194Z,23.13
2023-06-30T08:53:14.665Z,22.71
2023-06-30T08:58:25.705Z,24.08
2023-06-30T09:03:28.517Z,23.01
2023-06-30T09:08:36.732Z,24.17
2023-06-30T09:13:39.459Z,21.40
2023-06-30T09:18:40.931Z,20.40
2023-06-30T09:23:42.402Z,20.59
2023-06-30T09:28:44.318Z,20.67
2023-06-30T09:33:45.743Z,20.64
2023-06-30T09:38:47.183Z,20.82
2023-06-30T09:43:48.633Z,21.96
2023-06-30T09:48:53.888Z,23.36
2023-06-30T09:53:55.350Z,22.36
2023-06-30T09:58:57.513Z,20.96
2023-06-30T10:03:59.000Z,21.44
2023-06-30T10:09:01.874Z,21.60
2023-06-30T10:14:03.462Z,22.18
2023-06-30T10:19:06.057Z,22.36
2023-06-30T10:24:08.190Z,22.45
2023-06-30T10:29:10.128Z,20.89
2023-06-30T10:34:12.274Z,20.99
2023-06-30T10:39:14.166Z,21.42
2023-06-30T10:44:15.808Z,21.89
2023-06-30T10:49:17.979Z,22.87
2023-06-30T10:54:23.028Z,21.44
2023-06-30T10:59:24.611Z,22.07
2023-06-30T11:04:26.150Z,22.14
2023-06-30T11:09:27.662Z,22.93
2023-06-30T11:14:32.055Z,22.49
2023-06-30T11:19:35.816Z,21.59
2023-06-30T11:24:37.274Z,21.87
2023-06-30T11:29:39.718Z,22.26
2023-06-30T11:34:41.183Z,22.04
2023-06-30T11:39:50.007Z,21.63
2023-06-30T11:44:51.786Z,22.20
2023-06-30T11:49:53.183Z,21.48
2023-06-30T11:54:54.562Z,22.17
2023-06-30T11:59:56.000Z,22.35
2023-06-30T12:04:57.439Z,22.68
2023-06-30T12:10:02.241Z,23.41
2023-06-30T12:15:04.676Z,22.62
2023-06-30T12:20:06.557Z,22.95
2023-06-30T12:25:11.433Z,22.69
2023-06-30T12:30:19.548Z,22.07
2023-06-30T12:35:27.688Z,22.27
2023-06-30T12:40:29.162Z,21.89
2023-06-30T12:45:31.123Z,21.43
2023-06-30T12:50:33.235Z,21.87
2023-06-30T12:55:34.645Z,22.48
2023-06-30T13:00:36.072Z,22.30
2023-06-30T13:05:37.826Z,22.71
2023-06-30T13:10:39.241Z,23.06
2023-06-30T13:15:40.650Z,23.89
2023-06-30T13:20:44.071Z,23.16
2023-06-30T13:25:45.814Z,22.53
2023-06-30T13:35:49.093Z,21.71
2023-06-30T13:40:50.480Z,22.06
2023-06-30T13:45:51.952Z,22.30
2023-06-30T13:50:53.439Z,22.33
2023-06-30T13:55:56.690Z,22.48
2023-06-30T14:00:58.173Z,22.31
2023-06-30T14:05:59.657Z,22.20
2023-06-30T14:11:01.107Z,23.11
2023-06-30T14:16:02.509Z,23.37
2023-06-30T14:21:03.918Z,23.76
2023-06-30T14:26:05.363Z,23.11
2023-06-30T14:31:06.765Z,22.76
2023-06-30T14:36:08.186Z,22.75
2023-06-30T14:41:09.577Z,22.79
2023-06-30T14:46:11.005Z,23.62
2023-06-30T14:51:12.417Z,22.90
2023-06-30T14:56:13.828Z,22.76
2023-06-30T15:01:15.231Z,22.98
2023-06-30T15:06:16.753Z,22.73
2023-06-30T15:11:18.179Z,22.66
2023-06-30T15:16:19.681Z,22.15
2023-06-30T15:21:21.104Z,21.83
2023-06-30T15:26:22.498Z,22.11
2023-06-30T15:31:23.880Z,22.19
2023-06-30T15:36:25.263Z,22.67
2023-06-30T15:41:26.654Z,22.55
2023-06-30T15:46:28.076Z,22.39
2023-06-30T15:51:29.854Z,22.34
2023-06-30T15:56:31.259Z,22.45
2023-06-30T16:01:32.634Z,22.04
2023-06-30T16:06:34.012Z,21.69
2023-06-30T16:11:35.427Z,21.73
2023-06-30T16:16:36.950Z,21.57
2023-06-30T16:21:38.354Z,21.43
2023-06-30T16:26:39.759Z,21.52
2023-06-30T16:31:41.180Z,21.82
2023-06-30T16:36:42.577Z,21.71
2023-06-30T16:41:43.989Z,21.62
2023-06-30T16:46:45.378Z,21.79
2023-06-30T16:51:47.061Z,21.68
2023-06-30T16:56:48.465Z,21.76
2023-06-30T17:01:56.101Z,21.56
2023-06-30T17:06:58.081Z,21.43
2023-06-30T17:11:59.649Z,21.33
2023-06-30T17:17:01.110Z,21.34
2023-06-30T17:22:02.550Z,21.27
2023-06-30T17:27:04.015Z,21.36
2023-06-30T17:32:05.656Z,21.17
2023-06-30T17:37:07.912Z,21.27
2023-06-30T17:42:09.449Z,21.13
2023-06-30T17:47:10.999Z,20.71
2023-06-30T17:52:13.072Z,20.48
2023-06-30T17:57:14.621Z,20.03
2023-06-30T18:02:16.143Z,20.18
2023-06-30T18:07:17.639Z,20.12
2023-06-30T18:12:19.186Z,20.11
2023-06-30T18:17:20.624Z,19.81
2023-06-30T18:22:24.416Z,19.77
2023-06-30T18:27:25.913Z,19.60
2023-06-30T18:32:27.864Z,19.49
2023-06-30T18:37:29.517Z,19.34
2023-06-30T18:42:30.892Z,19.12
2023-06-30T18:47:32.476Z,18.98
2023-06-30T18:52:33.914Z,18.82
2023-06-30T18:57:35.413Z,18.77
2023-06-30T19:02:36.868Z,18.71
2023-06-30T19:07:38.331Z,18.56
2023-06-30T19:12:39.703Z,18.67
2023-06-30T19:17:41.121Z,18.68
2023-06-30T19:22:42.515Z,18.59
2023-06-30T19:27:43.876Z,18.64
2023-06-30T19:32:45.328Z,18.53
2023-06-30T19:37:46.752Z,18.33
2023-06-30T19:42:48.117Z,18.13
2023-06-30T19:47:49.513Z,17.99
2023-06-30T19:52:50.970Z,17.74
2023-06-30T19:57:53.835Z,17.40
2023-06-30T20:02:55.248Z,17.41
2023-06-30T20:07:56.683Z,17.51
2023-06-30T20:12:58.076Z,17.55
2023-06-30T20:17:59.476Z,17.67
2023-06-30T20:23:00.896Z,17.60
2023-06-30T20:28:02.253Z,17.59
2023-06-30T20:33:03.789Z,17.40
2023-06-30T20:38:05.176Z,17.36
2023-06-30T20:43:06.558Z,17.25
2023-06-30T20:48:08.973Z,17.22
2023-06-30T20:53:10.451Z,17.18
2023-06-30T20:58:11.817Z,17.05
2023-06-30T21:03:13.401Z,16.87
2023-06-30T21:08:14.845Z,16.67
2023-06-30T21:13:16.215Z,16.52
2023-06-30T21:18:17.577Z,16.45
2023-06-30T21:23:18.974Z,16.32
2023-06-30T21:28:20.423Z,16.24
2023-06-30T21:33:21.800Z,16.12
2023-06-30T21:38:23.158Z,16.08
2023-06-30T21:43:24.554Z,16.05
2023-06-30T21:48:25.880Z,16.03
2023-06-30T21:53:27.290Z,16.05
2023-06-30T21:58:28.687Z,16.00
2023-06-30T22:03:30.767Z,15.91
2023-06-30T22:08:32.173Z,15.89
2023-06-30T22:13:33.519Z,15.88
2023-06-30T22:18:34.915Z,15.85
2023-06-30T22:23:36.321Z,15.85
2023-06-30T22:28:37.797Z,15.88
2023-06-30T22:33:39.166Z,15.90
2023-06-30T22:38:40.613Z,15.86
2023-06-30T22:43:41.977Z,15.85
2023-06-30T22:48:43.358Z,15.83
2023-06-30T22:53:44.729Z,15.82
2023-06-30T22:58:46.105Z,15.76
2023-06-30T23:03:47.557Z,15.68
2023-06-30T23:08:48.971Z,15.69
2023-06-30T23:13:50.363Z,15.73
2023-06-30T23:18:51.835Z,15.72
2023-06-30T23:23:53.271Z,15.77
2023-06-30T23:28:55.121Z,15.73
2023-06-30T23:33:56.480Z,15.77
2023-06-30T23:38:58.050Z,15.63
2023-06-30T23:43:59.406Z,15.66
2023-06-30T23:49:00.814Z,15.62
2023-06-30T23:54:02.197Z,15.68
2023-06-30T23:59:03.582Z,15.68
